Time;durP1;ratioP1;P1;durP2;ratioP2;P2;SDS_P1;SDS_P2;PMS_P1;PMS_P2;Temp;Humidity;BMP_temperature;BMP_pressure;BME280_temperature;BME280_humidity;BME280_pressure;Samples;Min_cycle;Max_cycle;Signal;HPM_P1;HPM_P2
2022/12/30 00:00:14;;;;;;;21.70;5.05;;;;;;;;;;5082344;28;20051;-63
2022/12/30 00:02:40;;;;;;;22.15;4.20;;;;;;;;;;5086332;28;20656;-62
2022/12/30 00:05:06;;;;;;;22.55;4.43;;;;;;;;;;5083784;28;20095;-63
2022/12/30 00:07:35;;;;;;;19.20;4.53;;;;;;;;;;5093453;28;20073;-63
2022/12/30 00:10:01;;;;;;;23.45;4.63;;;;;;;;;;5082389;28;20379;-63
2022/12/30 00:34:36;;;;;;;17.80;4.30;;;;;;;;;;5093742;28;20047;-63
2022/12/30 00:37:03;;;;;;;21.88;4.25;;;;;;;;;;5112696;28;20062;-62
2022/12/30 00:39:29;;;;;;;28.33;4.95;;;;;;;;;;5113318;28;20067;-64
2022/12/30 00:44:39;;;;;;;21.97;4.23;;;;;;;;;;5112714;28;20068;-63
2022/12/30 00:47:06;;;;;;;24.08;4.00;;;;;;;;;;5111601;28;20124;-63
2022/12/30 00:57:47;;;;;;;22.50;4.90;;;;;;;;;;5113016;28;20044;-63
2022/12/30 01:00:13;;;;;;;18.63;3.58;;;;;;;;;;5094075;28;20100;-63
2022/12/30 01:02:39;;;;;;;24.98;4.20;;;;;;;;;;5104196;28;20039;-63
2022/12/30 01:05:06;;;;;;;27.63;4.43;;;;;;;;;;5081456;28;20047;-62
2022/12/30 01:07:32;;;;;;;13.93;3.53;;;;;;;;;;5084311;28;20047;-61
2022/12/30 01:09:58;;;;;;;17.90;3.67;;;;;;;;;;5091244;28;20073;-63
2022/12/30 01:12:24;;;;;;;16.77;3.97;;;6.60;99.90;;;;;;5092733;28;20032;-63
2022/12/30 01:14:51;;;;;;;20.40;3.58;;;;;;;;;;5109015;28;20152;-63
2022/12/30 01:17:22;;;;;;;22.80;4.60;;;;;;;;;;5078768;28;20057;-63
2022/12/30 01:19:48;;;;;;;20.75;4.03;;;;;;;;;;5062266;28;20040;-64
2022/12/30 01:22:14;;;;;;;17.92;3.30;;;;;;;;;;5090771;28;20066;-63
2022/12/30 01:24:39;;;;;;;17.20;3.80;;;6.20;99.90;;;;;;5090667;28;20067;-63
2022/12/30 01:27:05;;;;;;;23.40;5.07;;;;;;;;;;5073854;28;20048;-62
2022/12/30 01:29:39;;;;;;;17.55;3.38;;;;;;;;;;5091803;28;20546;-61
2022/12/30 01:32:06;;;;;;;17.27;4.25;;;;;;;;;;5076554;28;20055;-64
2022/12/30 01:34:32;;;;;;;25.63;4.15;;;;;;;;;;5087395;28;20178;-61
2022/12/30 01:36:58;;;;;;;24.25;4.72;;;;;;;;;;5092239;28;20044;-63
2022/12/30 01:39:24;;;;;;;20.17;4.28;;;;;;;;;;5071967;28;20044;-63
2022/12/30 01:41:50;;;;;;;22.23;3.88;;;;;;;;;;5090289;28;20493;-63
2022/12/30 01:44:50;;;;;;;21.85;4.10;;;6.10;99.90;;;;;;5072923;28;20054;-64
2022/12/30 01:47:19;;;;;;;22.40;5.93;;;;;;;;;;5069264;28;20092;-63
2022/12/30 01:49:46;;;;;;;21.10;4.18;;;;;;;;;;5090791;28;20039;-63
2022/12/30 01:52:13;;;;;;;20.83;4.20;;;;;;;;;;5088403;28;20075;-64
2022/12/30 01:54:39;;;;;;;22.80;3.83;;;;;;;;;;5072866;28;20108;-63
2022/12/30 01:57:06;;;;;;;25.17;4.18;;;;;;;;;;5072254;28;20048;-63
2022/12/30 01:59:33;;;;;;;14.18;3.10;;;;;;;;;;5058971;28;20402;-62
2022/12/30 02:02:00;;;;;;;27.63;4.25;;;;;;;;;;5072008;28;20075;-62
2022/12/30 02:04:27;;;;;;;17.85;3.08;;;;;;;;;;5090572;28;20559;-63
2022/12/30 02:07:01;;;;;;;15.95;3.80;;;;;;;;;;5071894;28;20133;-63
2022/12/30 02:09:28;;;;;;;17.00;3.72;;;;;;;;;;5091236;28;20130;-60
2022/12/30 02:11:55;;;;;;;17.50;3.80;;;;;;;;;;5091635;28;20132;-63
2022/12/30 02:14:21;;;;;;;22.85;3.33;;;;;;;;;;5055439;28;20054;-63
2022/12/30 02:16:50;;;;;;;20.02;4.97;;;;;;;;;;5071549;28;20119;-61
2022/12/30 02:19:32;;;;;;;16.23;3.47;;;;;;;;;;5072277;28;20031;-64
2022/12/30 02:22:22;;;;;;;13.68;3.10;;;;;;;;;;5052147;28;20621;-62
2022/12/30 02:24:48;;;;;;;21.48;3.20;;;;;;;;;;5088203;28;20083;-63
2022/12/30 02:27:22;;;;;;;20.98;4.35;;;;;;;;;;5072032;28;20078;-63
2022/12/30 02:30:03;;;;;;;23.65;5.22;;;;;;;;;;5054834;28;20048;-62
2022/12/30 02:32:51;;;;;;;23.67;5.20;;;;;;;;;;5089989;28;20056;-63
2022/12/30 02:35:23;;;;;;;15.55;3.05;;;;;;;;;;5058855;28;20558;-63
2022/12/30 02:37:49;;;;;;;19.48;3.90;;;;;;;;;;5080616;28;20505;-63
2022/12/30 02:46:18;;;;;;;17.38;4.32;;;;;;;;;;5089887;28;19953;-63
2022/12/30 02:48:47;;;;;;;18.17;5.78;;;;;;;;;;5071797;28;20472;-63
2022/12/30 02:53:59;;;;;;;12.70;3.20;;;;;;;;;;5094804;28;20040;-62
2022/12/30 02:56:24;;;;;;;18.05;4.03;;;;;;;;;;5077512;28;20107;-63
2022/12/30 03:03:56;;;;;;;18.25;3.78;;;;;;;;;;5075182;28;20040;-62
2022/12/30 03:04:34;;;;;;;18.67;5.00;;;;;;;;;;5080934;28;20052;-62
2022/12/30 03:07:09;;;;;;;21.67;3.72;;;;;;;;;;5094030;28;20126;-62
2022/12/30 03:09:38;;;;;;;25.30;4.55;;;;;;;;;;5074991;28;20406;-63
2022/12/30 03:12:10;;;;;;;20.65;4.03;;;;;;;;;;5074047;28;20494;-62
2022/12/30 03:15:03;;;;;;;18.08;3.70;;;6.30;99.90;;;;;;5059001;28;20088;-63
2022/12/30 03:17:32;;;;;;;16.77;3.50;;;;;;;;;;5084647;28;20447;-62
2022/12/30 03:20:00;;;;;;;21.98;3.35;;;;;;;;;;5058574;28;20040;-63
2022/12/30 03:27:59;;;;;;;14.02;3.60;;;;;;;;;;5074786;28;20043;-63
2022/12/30 03:30:25;;;;;;;15.43;3.38;;;;;;;;;;5074723;28;20478;-62
2022/12/30 03:32:51;;;;;;;12.63;3.50;;;;;;;;;;5091736;28;20047;-61
2022/12/30 03:35:18;;;;;;;25.25;4.97;;;;;;;;;;5092844;28;20036;-62
2022/12/30 03:37:53;;;;;;;16.92;3.15;;;;;;;;;;5082158;28;20143;-62
2022/12/30 03:40:28;;;;;;;15.93;3.42;;;;;;;;;;5076057;28;20488;-63
2022/12/30 03:42:54;;;;;;;12.35;3.33;;;;;;;;;;5073797;28;20052;-64
2022/12/30 03:45:20;;;;;;;19.52;3.63;;;;;;;;;;5073337;28;20042;-61
2022/12/30 03:47:46;;;;;;;20.00;3.95;;;;;;;;;;5057994;28;20115;-61
2022/12/30 03:50:12;;;;;;;21.98;3.67;;;;;;;;;;5057446;28;20048;-61
2022/12/30 03:52:38;;;;;;;10.48;3.50;;;;;;;;;;5074031;28;20044;-61
2022/12/30 03:55:05;;;;;;;15.10;3.28;;;;;;;;;;5092049;28;20113;-62
2022/12/30 03:57:31;;;;;;;14.25;3.08;;;;;;;;;;5077451;28;20105;-62
2022/12/30 03:59:57;;;;;;;14.80;3.80;;;;;;;;;;5073226;28;20039;-61
2022/12/30 04:02:23;;;;;;;11.55;3.10;;;;;;;;;;5056340;28;20112;-61
2022/12/30 04:04:49;;;;;;;16.70;4.10;;;;;;;;;;5074260;28;20040;-60
2022/12/30 04:07:15;;;;;;;21.23;4.53;;;;;;;;;;5091355;28;20937;-63
2022/12/30 04:09:41;;;;;;;16.95;3.97;;;;;;;;;;5073820;28;20120;-60
2022/12/30 04:12:07;;;;;;;17.05;3.25;;;;;;;;;;5073854;28;20406;-61
2022/12/30 04:14:33;;;;;;;18.52;3.85;;;;;;;;;;5073274;28;20043;-62
2022/12/30 04:16:59;;;;;;;16.08;3.35;;;;;;;;;;5091062;28;20048;-61
2022/12/30 04:19:25;;;;;;;13.20;2.92;;;;;;;;;;5072278;28;20508;-62
2022/12/30 04:21:51;;;;;;;12.70;2.30;;;;;;;;;;5090623;28;20039;-62
2022/12/30 04:24:17;;;;;;;19.98;3.67;;;;;;;;;;5056496;28;20043;-60
2022/12/30 04:26:43;;;;;;;8.82;2.55;;;;;;;;;;5057249;28;20071;-61
2022/12/30 04:29:09;;;;;;;15.45;3.58;;;;;;;;;;5072905;28;20497;-62
2022/12/30 04:31:35;;;;;;;13.40;4.40;;;;;;;;;;5090790;28;20056;-62
2022/12/30 04:34:01;;;;;;;11.80;3.42;;;;;;;;;;5073459;28;20047;-61
2022/12/30 04:36:27;;;;;;;15.98;3.72;;;;;;;;;;5091340;28;20405;-61
2022/12/30 04:38:53;;;;;;;13.80;3.40;;;;;;;;;;5091249;28;20036;-61
2022/12/30 04:41:20;;;;;;;13.25;3.35;;;;;;;;;;5057189;28;20143;-60
2022/12/30 04:43:46;;;;;;;15.95;4.03;;;;;;;;;;5072795;28;20108;-65
2022/12/30 04:46:12;;;;;;;18.67;3.53;;;;;;;;;;5090759;28;20129;-61
2022/12/30 04:48:38;;;;;;;20.88;4.25;;;;;;;;;;5093109;28;20478;-61
2022/12/30 04:51:05;;;;;;;17.73;4.13;;;;;;;;;;5097710;28;20127;-62
2022/12/30 04:53:31;;;;;;;19.10;3.90;;;;;;;;;;5079704;28;20040;-61
2022/12/30 04:55:57;;;;;;;19.33;3.80;;;;;;;;;;5075863;28;20078;-62
2022/12/30 04:58:23;;;;;;;18.38;3.88;;;;;;;;;;5091043;28;20438;-61
2022/12/30 05:00:50;;;;;;;19.25;4.18;;;;;;;;;;5075784;28;20036;-61
2022/12/30 05:03:16;;;;;;;24.50;4.38;;;;;;;;;;5074716;28;20043;-62
2022/12/30 05:05:42;;;;;;;13.30;3.63;;;;;;;;;;5091039;28;20039;-62
2022/12/30 05:08:08;;;;;;;18.23;4.25;;;;;;;;;;5089547;28;20032;-62
2022/12/30 05:10:35;;;;;;;23.98;3.60;;;;;;;;;;5089433;28;20414;-61
2022/12/30 05:13:01;;;;;;;17.25;4.38;;;;;;;;;;5089676;28;20063;-62
2022/12/30 05:15:27;;;;;;;13.13;3.90;;;;;;;;;;5090509;28;20075;-63
2022/12/30 05:17:53;;;;;;;17.73;3.78;;;;;;;;;;5075623;28;20043;-61
2022/12/30 05:20:19;;;;;;;14.25;3.97;;;;;;;;;;5073999;28;20806;-63
2022/12/30 05:22:45;;;;;;;17.30;4.30;;;;;;;;;;5072106;28;20043;-60
2022/12/30 05:27:55;;;;;;;18.35;4.60;;;;;;;;;;5095712;28;20481;-61
2022/12/30 05:30:21;;;;;;;15.00;4.35;;;;;;;;;;5093213;28;20095;-62
2022/12/30 05:32:47;;;;;;;14.57;3.60;;;;;;;;;;5073950;28;20146;-62
2022/12/30 05:35:13;;;;;;;18.08;3.88;;;5.50;99.90;;;;;;5087415;28;20119;-57
2022/12/30 05:37:39;;;;;;;14.70;4.90;;;;;;;;;;5087626;28;20115;-59
2022/12/30 05:40:05;;;;;;;18.05;4.10;;;;;;;;;;5087142;28;20524;-62
2022/12/30 05:42:31;;;;;;;15.10;3.90;;;;;;;;;;5086980;28;20036;-63
2022/12/30 05:44:57;;;;;;;16.85;3.63;;;;;;;;;;5068976;28;20051;-62
2022/12/30 05:47:23;;;;;;;11.98;4.35;;;5.40;99.90;;;;;;5087290;28;20095;-60
2022/12/30 05:49:49;;;;;;;14.40;4.60;;;5.30;99.90;;;;;;5087025;28;20498;-60
2022/12/30 05:52:15;;;;;;;19.52;4.05;;;;;;;;;;5068579;28;20044;-59
2022/12/30 05:54:42;;;;;;;12.00;4.22;;;;;;;;;;5068983;28;20044;-61
2022/12/30 05:57:08;;;;;;;20.25;4.55;;;;;;;;;;5086893;28;20093;-60
2022/12/30 05:59:34;;;;;;;21.20;4.13;;;5.20;99.90;;;;;;5068933;28;20478;-57
2022/12/30 06:02:00;;;;;;;11.85;3.97;;;;;;;;;;5086852;28;20046;-58
2022/12/30 06:04:26;;;;;;;14.05;3.70;;;5.20;99.90;;;;;;5086749;28;20478;-58
2022/12/30 06:06:52;;;;;;;14.30;4.05;;;;;;;;;;5072593;28;20044;-63
2022/12/30 06:09:18;;;;;;;15.43;3.95;;;;;;;;;;5079327;28;20040;-63
2022/12/30 06:11:44;;;;;;;11.30;3.58;;;;;;;;;;5071006;28;20044;-64
2022/12/30 06:14:12;;;;;;;9.38;3.35;;;;;;;;;;5083348;28;20036;-60
2022/12/30 06:16:38;;;;;;;23.48;4.80;;;;;;;;;;5073213;28;20413;-66
2022/12/30 06:19:04;;;;;;;11.57;4.32;;;;;;;;;;5069270;28;20904;-64
2022/12/30 06:21:30;;;;;;;17.25;3.30;;;5.50;99.90;;;;;;5086687;28;20339;-64
2022/12/30 06:23:55;;;;;;;19.08;4.63;;;;;;;;;;5086319;28;20043;-64
2022/12/30 06:26:22;;;;;;;12.70;3.80;;;;;;;;;;5085665;28;20496;-62
2022/12/30 06:28:48;;;;;;;15.80;3.25;;;;;;;;;;5092009;28;20052;-63
2022/12/30 06:31:13;;;;;;;11.98;2.90;;;;;;;;;;5086113;28;20466;-62
2022/12/30 06:33:39;;;;;;;13.27;3.67;;;5.30;99.90;;;;;;5068857;28;20039;-63
2022/12/30 06:36:05;;;;;;;11.32;3.50;;;;;;;;;;5087421;28;20032;-62
2022/12/30 06:38:31;;;;;;;12.60;3.50;;;;;;;;;;5068019;28;20040;-62
2022/12/30 06:40:57;;;;;;;13.70;5.10;;;;;;;;;;5068731;28;20051;-63
2022/12/30 06:43:23;;;;;;;20.33;4.43;;;;;;;;;;5068467;28;20494;-63
2022/12/30 06:45:49;;;;;;;15.68;3.40;;;;;;;;;;5068282;28;20040;-60
2022/12/30 06:48:15;;;;;;;13.15;3.22;;;;;;;;;;5085294;28;20032;-63
2022/12/30 06:50:41;;;;;;;11.05;2.72;;;;;;;;;;5079730;28;20048;-62
2022/12/30 06:53:07;;;;;;;13.52;3.33;;;5.30;99.90;;;;;;5087095;28;20904;-60
2022/12/30 06:55:33;;;;;;;8.15;3.22;;;;;;;;;;5084902;28;20177;-62
2022/12/30 06:57:59;;;;;;;13.77;4.07;;;;;;;;;;5073180;28;20066;-63
2022/12/30 07:00:25;;;;;;;13.35;3.13;;;;;;;;;;5084298;28;20506;-63
2022/12/30 07:02:50;;;;;;;12.40;3.05;;;5.40;99.90;;;;;;5069587;28;20039;-62
2022/12/30 07:05:16;;;;;;;16.80;2.90;;;;;;;;;;5076908;28;20040;-62
2022/12/30 07:07:42;;;;;;;15.90;3.30;;;;;;;;;;5053203;28;21452;-65
2022/12/30 07:10:08;;;;;;;18.33;3.28;;;;;;;;;;5064946;28;20062;-67
2022/12/30 07:12:34;;;;;;;11.40;2.75;;;;;;;;;;5031864;28;20502;-62
2022/12/30 07:15:00;;;;;;;12.93;2.95;;;;;;;;;;5047344;28;20070;-64
2022/12/30 07:17:26;;;;;;;16.23;3.13;;;;;;;;;;5066590;28;20497;-64
2022/12/30 07:19:52;;;;;;;13.77;3.40;;;;;;;;;;5051072;28;20040;-65
2022/12/30 07:22:18;;;;;;;12.60;3.17;;;;;;;;;;5048402;28;20067;-61
2022/12/30 07:24:44;;;;;;;16.65;3.67;;;;;;;;;;5035297;28;20143;-62
2022/12/30 07:27:14;;;;;;;18.77;5.75;;;;;;;;;;5069754;28;20052;-61
2022/12/30 07:29:40;;;;;;;25.10;4.63;;;;;;;;;;5061877;28;20044;-63
2022/12/30 07:32:06;;;;;;;12.30;3.13;;;;;;;;;;5046804;28;20064;-62
2022/12/30 07:34:34;;;;;;;13.80;4.63;;;;;;;;;;5039276;28;20044;-64
2022/12/30 07:37:00;;;;;;;22.60;3.47;;;;;;;;;;5051117;28;20043;-63
2022/12/30 07:39:26;;;;;;;13.80;3.50;;;;;;;;;;5049064;28;20044;-62
2022/12/30 07:41:52;;;;;;;9.00;2.85;;;;;;;;;;5063911;28;20051;-58
2022/12/30 07:44:18;;;;;;;14.85;2.72;;;;;;;;;;5066820;28;20105;-63
2022/12/30 07:46:44;;;;;;;16.42;3.30;;;;;;;;;;5057773;28;20557;-62
2022/12/30 07:49:10;;;;;;;16.90;3.28;;;;;;;;;;5051530;28;20048;-62
2022/12/30 07:51:36;;;;;;;15.27;3.20;;;;;;;;;;5038765;28;20094;-63
2022/12/30 07:54:02;;;;;;;15.23;3.85;;;;;;;;;;5059505;28;20059;-63
2022/12/30 07:56:28;;;;;;;13.23;2.55;;;;;;;;;;5038191;28;20153;-61
2022/12/30 07:58:54;;;;;;;16.85;4.55;;;;;;;;;;5068544;28;20406;-61
2022/12/30 08:01:20;;;;;;;10.98;3.53;;;;;;;;;;5055563;28;20044;-63
2022/12/30 08:03:46;;;;;;;15.63;3.20;;;;;;;;;;5074935;28;20048;-65
2022/12/30 08:06:16;;;;;;;14.18;4.20;;;;;;;;;;5067755;28;20044;-62
2022/12/30 08:08:43;;;;;;;14.55;2.95;;;;;;;;;;5055759;28;20052;-63
2022/12/30 08:11:10;;;;;;;14.65;3.25;;;;;;;;;;5070803;28;20098;-63
2022/12/30 08:13:38;;;;;;;15.38;3.53;;;5.50;99.90;;;;;;5066288;28;20110;-62
2022/12/30 08:16:05;;;;;;;11.90;3.72;;;;;;;;;;5069337;28;20036;-62
2022/12/30 08:18:31;;;;;;;22.23;3.83;;;;;;;;;;5070515;28;20177;-62
2022/12/30 08:21:03;;;;;;;13.15;3.10;;;;;;;;;;5052239;28;20559;-63
2022/12/30 08:23:29;;;;;;;19.55;3.83;;;;;;;;;;5068277;28;20056;-64
2022/12/30 08:25:55;;;;;;;15.88;3.90;;;;;;;;;;5050048;28;20054;-64
2022/12/30 08:28:21;;;;;;;12.90;2.92;;;;;;;;;;5069013;28;20043;-63
2022/12/30 08:30:47;;;;;;;13.50;3.17;;;;;;;;;;5060260;28;20043;-62
2022/12/30 08:33:13;;;;;;;8.07;2.78;;;;;;;;;;5053081;28;20083;-62
2022/12/30 08:35:39;;;;;;;18.60;3.97;;;;;;;;;;5047077;28;20054;-62
2022/12/30 08:38:05;;;;;;;17.48;3.50;;;;;;;;;;5072013;28;20082;-65
2022/12/30 08:40:33;;;;;;;15.00;3.35;;;;;;;;;;5074285;28;20147;-59
2022/12/30 08:42:59;;;;;;;16.33;3.42;;;;;;;;;;5075579;28;20523;-64
2022/12/30 08:45:25;;;;;;;7.93;2.33;;;;;;;;;;5051221;28;20569;-64
2022/12/30 08:47:51;;;;;;;15.02;4.15;;;;;;;;;;5064358;28;20119;-64
2022/12/30 08:50:17;;;;;;;12.70;3.65;;;;;;;;;;5060719;28;20829;-65
2022/12/30 08:52:43;;;;;;;19.30;3.80;;;;;;;;;;5051376;28;20138;-62
2022/12/30 08:55:09;;;;;;;14.85;3.05;;;;;;;;;;5076173;28;20127;-63
2022/12/30 08:57:39;;;;;;;8.15;2.80;;;;;;;;;;5051005;28;20060;-64
2022/12/30 09:00:05;;;;;;;12.15;3.90;;;;;;;;;;5053333;28;20137;-63
2022/12/30 09:02:32;;;;;;;16.08;3.20;;;;;;;;;;5050237;28;20140;-64
2022/12/30 09:04:58;;;;;;;15.98;3.15;;;;;;;;;;5073556;28;20051;-65
2022/12/30 09:07:24;;;;;;;17.25;3.60;;;;;;;;;;5055737;28;20477;-66
2022/12/30 09:09:50;;;;;;;16.25;3.20;;;;;;;;;;5071224;28;20040;-62
2022/12/30 09:12:17;;;;;;;13.88;3.22;;;;;;;;;;5072233;28;20036;-63
2022/12/30 09:14:43;;;;;;;16.70;2.83;;;;;;;;;;5073262;28;20725;-62
2022/12/30 09:17:09;;;;;;;12.73;4.07;;;;;;;;;;5054899;28;20039;-63
2022/12/30 09:19:35;;;;;;;11.85;2.90;;;;;;;;;;5053796;28;20040;-64
2022/12/30 09:22:01;;;;;;;9.63;3.13;;;;;;;;;;5036661;28;20049;-63
2022/12/30 09:24:27;;;;;;;16.45;3.53;;;;;;;;;;5070688;28;20094;-63
2022/12/30 09:26:53;;;;;;;14.10;3.55;;;;;;;;;;5056646;28;20048;-63
2022/12/30 09:29:19;;;;;;;14.52;3.33;;;;;;;;;;5072567;28;20896;-62
2022/12/30 09:31:45;;;;;;;11.60;2.85;;;;;;;;;;5073891;28;20052;-58
2022/12/30 09:34:12;;;;;;;13.77;3.72;;;;;;;;;;5054727;28;20101;-65
2022/12/30 09:36:38;;;;;;;9.32;3.33;;;;;;;;;;5073285;28;20731;-63
2022/12/30 09:39:04;;;;;;;13.18;2.95;;;;;;;;;;5055808;28;20043;-62
2022/12/30 09:44:41;;;;;;;14.30;4.22;;;;;;;;;;5054392;28;20785;-62
2022/12/30 09:47:22;;;;;;;7.80;2.70;;;;;;;;;;5073070;28;20085;-65
2022/12/30 09:49:52;;;;;;;14.85;3.38;;;;;;;;;;5055677;28;20144;-63
2022/12/30 09:52:40;;;;;;;11.07;2.85;;;;;;;;;;5053466;28;20052;-64
2022/12/30 09:55:10;;;;;;;5.90;2.60;;;;;;;;;;5054133;28;20087;-63
2022/12/30 09:57:37;;;;;;;12.38;3.08;;;;;;;;;;5043680;28;20040;-62
2022/12/30 10:00:13;;;;;;;7.80;3.08;;;;;;;;;;5071960;28;20098;-64
2022/12/30 10:02:56;;;;;;;12.40;2.78;;;;;;;;;;5052542;28;20040;-64
2022/12/30 10:05:30;;;;;;;10.23;2.42;;;;;;;;;;5070720;28;20060;-63
2022/12/30 10:08:00;;;;;;;14.18;3.15;;;;;;;;;;5076323;28;20084;-63
2022/12/30 10:10:40;;;;;;;14.13;3.15;;;;;;;;;;5060668;28;20192;-64
2022/12/30 10:13:15;;;;;;;10.15;2.78;;;;;;;;;;5063040;28;20036;-65
2022/12/30 10:15:45;;;;;;;12.95;3.22;;;;;;;;;;5064469;28;20494;-63
2022/12/30 10:18:17;;;;;;;13.48;3.20;;;;;;;;;;5049845;28;21098;-64
2022/12/30 10:20:48;;;;;;;7.53;2.63;;;;;;;;;;5058284;28;20429;-63
2022/12/30 10:23:26;;;;;;;7.35;3.00;;;;;;;;;;5055758;28;20501;-62
2022/12/30 10:26:01;;;;;;;12.40;2.97;;;;;;;;;;5064995;28;21303;-62
2022/12/30 10:28:33;;;;;;;8.30;2.70;;;;;;;;;;5045418;28;20452;-64
2022/12/30 10:30:59;;;;;;;10.90;4.10;;;;;;;;;;5064676;28;20135;-63
2022/12/30 10:33:25;;;;;;;13.98;2.80;;;;;;;;;;5060233;28;20046;-64
2022/12/30 10:35:59;;;;;;;6.82;2.45;;;;;;;;;;5057045;28;20048;-62
2022/12/30 10:38:28;;;;;;;13.50;2.72;;;;;;;;;;5068382;28;21245;-63
2022/12/30 10:41:07;;;;;;;6.13;2.38;;;;;;;;;;5075434;28;20066;-63
2022/12/30 10:43:40;;;;;;;10.35;2.67;;;;;;;;;;5055675;28;20056;-61
2022/12/30 10:46:42;;;;;;;5.75;2.47;;;;;;;;;;5068329;28;20416;-63
2022/12/30 10:49:14;;;;;;;6.15;2.10;;;;;;;;;;4959869;28;20923;-63
2022/12/30 10:51:41;;;;;;;4.38;2.28;;;;;;;;;;5058964;28;20048;-62
2022/12/30 10:54:08;;;;;;;5.80;2.85;;;;;;;;;;5072153;28;20166;-64
2022/12/30 10:56:35;;;;;;;12.52;2.83;;;;;;;;;;5056120;28;20645;-63
2022/12/30 10:59:04;;;;;;;7.80;2.28;;;;;;;;;;5051214;28;20044;-64
2022/12/30 11:01:32;;;;;;;8.73;2.47;;;;;;;;;;5052745;28;20501;-63
2022/12/30 11:03:59;;;;;;;5.28;1.70;;;;;;;;;;5075186;28;20896;-62
2022/12/30 11:06:27;;;;;;;8.13;2.30;;;;;;;;;;5073717;28;20051;-61
2022/12/30 11:08:54;;;;;;;10.85;2.40;;;;;;;;;;5055082;28;20079;-64
2022/12/30 11:14:42;;;;;;;8.25;2.38;;;;;;;;;;5070673;28;20044;-63
2022/12/30 11:17:17;;;;;;;8.85;1.95;;;;;;;;;;5073155;28;20043;-63
2022/12/30 11:19:44;;;;;;;6.68;1.67;;;;;;;;;;5057291;28;20054;-63
2022/12/30 11:22:11;;;;;;;8.20;2.00;;;;;;;;;;5050603;28;20135;-63
2022/12/30 11:24:37;;;;;;;9.50;1.90;;;;;;;;;;5073955;28;20048;-63
2022/12/30 11:27:03;;;;;;;9.80;2.33;;;;;;;;;;5052762;28;20063;-63
2022/12/30 11:29:32;;;;;;;5.75;1.88;;;;;;;;;;5054373;28;20151;-64
2022/12/30 11:31:58;;;;;;;7.93;2.25;;;;;;;;;;5050765;28;20436;-63
2022/12/30 11:34:27;;;;;;;6.47;2.33;;;;;;;;;;5063793;28;20123;-59
2022/12/30 11:36:53;;;;;;;3.83;2.03;;;;;;;;;;5071828;28;20051;-62
2022/12/30 11:39:22;;;;;;;8.13;2.33;;;;;;;;;;5068871;28;20036;-60
2022/12/30 11:41:49;;;;;;;8.32;2.38;;;;;;;;;;5054672;28;20467;-61
2022/12/30 11:44:19;;;;;;;6.72;1.65;;;;;;;;;;5056407;28;20076;-62
2022/12/30 11:46:47;;;;;;;7.43;2.00;;;;;;;;;;5076054;28;20040;-63
2022/12/30 11:49:26;;;;;;;8.68;2.33;;;;;;;;;;5057173;28;20055;-63
2022/12/30 11:51:53;;;;;;;5.53;1.63;;;;;;;;;;5078775;28;21675;-62
2022/12/30 11:54:21;;;;;;;5.68;2.42;;;;;;;;;;5068432;28;20893;-67
2022/12/30 11:56:55;;;;;;;5.85;2.30;;;;;;;;;;5061348;28;20337;-60
2022/12/30 11:59:44;;;;;;;8.70;2.20;;;;;;;;;;5071432;28;20044;-62
2022/12/30 12:02:20;;;;;;;8.57;2.10;;;;;;;;;;5052528;28;20770;-64
2022/12/30 12:04:46;;;;;;;4.90;1.95;;;;;;;;;;5053659;28;20133;-64
2022/12/30 12:07:18;;;;;;;7.03;1.92;;;;;;;;;;5055977;28;20052;-65
2022/12/30 12:09:50;;;;;;;11.25;1.73;;;;;;;;;;5064635;28;20055;-63
2022/12/30 12:12:18;;;;;;;4.75;1.65;;;;;;;;;;5077126;28;20047;-64
2022/12/30 12:15:06;;;;;;;6.28;2.40;;;;;;;;;;5053083;28;20101;-65
2022/12/30 12:17:51;;;;;;;4.53;1.90;;;;;;;;;;5051651;28;20557;-63
2022/12/30 12:20:21;;;;;;;7.55;1.75;;;;;;;;;;5054605;28;20127;-65
2022/12/30 12:22:47;;;;;;;5.80;1.65;;;;;;;;;;5049403;28;20074;-63
2022/12/30 12:25:17;;;;;;;13.05;1.55;;;;;;;;;;5045990;28;20832;-64
2022/12/30 12:27:43;;;;;;;6.50;2.45;;;;;;;;;;5067397;28;20113;-65
2022/12/30 12:30:13;;;;;;;6.43;2.03;;;;;;;;;;5054501;28;20048;-65
2022/12/30 12:32:47;;;;;;;8.02;2.13;;;;;;;;;;5056552;28;20075;-63
2022/12/30 12:35:19;;;;;;;4.63;1.33;;;8.60;99.90;;;;;;5055506;28;20056;-62
2022/12/30 12:38:01;;;;;;;6.60;1.40;;;;;;;;;;5050947;28;20055;-63
2022/12/30 12:40:35;;;;;;;6.45;2.20;;;;;;;;;;5043181;28;20132;-62
2022/12/30 12:43:15;;;;;;;6.72;1.65;;;;;;;;;;5055674;28;20083;-65
2022/12/30 12:45:56;;;;;;;6.18;1.95;;;;;;;;;;5050410;28;20055;-62
2022/12/30 12:48:42;;;;;;;3.78;1.30;;;;;;;;;;5045671;28;20580;-61
2022/12/30 12:51:17;;;;;;;6.82;1.42;;;;;;;;;;5050713;28;20057;-64
2022/12/30 12:53:49;;;;;;;3.80;1.60;;;;;;;;;;5049141;28;21305;-64
2022/12/30 12:56:21;;;;;;;3.35;1.83;;;;;;;;;;5049341;28;20135;-62
2022/12/30 12:59:06;;;;;;;5.95;2.42;;;;;;;;;;5064771;28;20048;-64
2022/12/30 13:01:38;;;;;;;8.60;2.50;;;;;;;;;;5065127;28;20141;-63
2022/12/30 13:04:04;;;;;;;8.55;2.28;;;;;;;;;;5049897;28;20687;-65
2022/12/30 13:06:41;;;;;;;5.15;2.25;;;;;;;;;;5051377;28;20177;-64
2022/12/30 13:09:21;;;;;;;8.23;3.45;;;9.00;99.90;;;;;;5054601;28;20040;-65
2022/12/30 13:11:47;;;;;;;7.28;2.10;;;;;;;;;;5049180;28;20055;-62
2022/12/30 13:14:42;;;;;;;7.55;2.42;;;9.20;99.90;;;;;;5053136;28;20048;-63
2022/12/30 13:17:26;;;;;;;4.93;2.23;;;;;;;;;;5075954;28;20051;-64
2022/12/30 13:19:54;;;;;;;8.23;1.90;;;;;;;;;;5072306;28;20504;-61
2022/12/30 13:22:23;;;;;;;3.22;1.60;;;;;;;;;;5073492;28;20043;-63
2022/12/30 13:24:50;;;;;;;5.13;1.88;;;;;;;;;;5050269;28;20154;-63
2022/12/30 13:27:27;;;;;;;4.90;1.65;;;9.30;99.90;;;;;;5052525;28;20040;-63
2022/12/30 13:29:53;;;;;;;7.72;2.08;;;;;;;;;;5051247;28;20048;-62
2022/12/30 13:32:25;;;;;;;4.25;1.70;;;;;;;;;;5049352;28;20059;-62
2022/12/30 13:35:28;;;;;;;6.78;1.50;;;9.30;99.90;;;;;;5073414;28;20051;-64
2022/12/30 13:38:04;;;;;;;4.75;1.30;;;9.30;99.90;;;;;;5057142;28;20047;-64
2022/12/30 13:40:34;;;;;;;7.90;1.95;;;;;;;;;;5069087;28;20156;-63
2022/12/30 13:43:07;;;;;;;2.30;1.10;;;;;;;;;;5065070;28;20045;-62
2022/12/30 13:45:34;;;;;;;7.47;1.85;;;;;;;;;;5052168;28;20044;-63
2022/12/30 13:48:03;;;;;;;4.00;1.50;;;;;;;;;;5052645;28;20054;-61
2022/12/30 13:50:31;;;;;;;7.70;2.25;;;;;;;;;;5050104;28;20145;-63
2022/12/30 13:52:59;;;;;;;5.75;2.25;;;;;;;;;;5058397;28;20160;-63
2022/12/30 13:55:29;;;;;;;6.95;1.75;;;;;;;;;;5053527;28;20048;-64
2022/12/30 13:58:17;;;;;;;3.85;1.70;;;;;;;;;;5053024;28;20056;-65
2022/12/30 14:00:42;;;;;;;5.30;1.35;;;9.40;99.90;;;;;;5046547;28;20036;-66
2022/12/30 14:03:17;;;;;;;7.30;1.73;;;9.70;99.90;;;;;;5054925;28;20050;-64
2022/12/30 14:05:43;;;;;;;3.33;1.60;;;9.80;99.90;;;;;;5054779;28;20044;-66
2022/12/30 14:08:21;;;;;;;5.07;1.23;;;;;;;;;;5055626;28;20052;-64
2022/12/30 14:10:47;;;;;;;5.18;1.27;;;;;;;;;;5070501;28;20044;-64
2022/12/30 14:13:14;;;;;;;2.50;1.15;;;;;;;;;;5045491;28;20036;-64
2022/12/30 14:15:44;;;;;;;3.20;1.50;;;;;;;;;;5051307;28;20100;-64
2022/12/30 14:18:28;;;;;;;7.03;1.50;;;;;;;;;;5075864;28;20047;-63
2022/12/30 14:20:59;;;;;;;9.07;1.63;;;9.40;99.90;;;;;;5067820;28;20072;-63
2022/12/30 14:23:36;;;;;;;6.53;2.83;;;;;;;;;;5073777;28;20040;-62
2022/12/30 14:26:20;;;;;;;5.20;2.10;;;;;;;;;;5059966;28;20135;-64
2022/12/30 14:28:56;;;;;;;6.22;1.40;;;;;;;;;;5043324;28;20894;-61
2022/12/30 14:31:27;;;;;;;3.40;1.48;;;;;;;;;;5044859;28;20064;-61
2022/12/30 14:33:54;;;;;;;7.47;2.50;;;;;;;;;;5067740;28;20048;-61
2022/12/30 14:36:21;;;;;;;1.52;1.23;;;;;;;;;;5042439;28;20072;-62
2022/12/30 14:38:50;;;;;;;4.05;2.00;;;;;;;;;;5043366;28;20257;-63
2022/12/30 14:41:43;;;;;;;6.25;1.98;;;;;;;;;;5050891;28;20056;-61
2022/12/30 14:44:12;;;;;;;5.20;1.73;;;;;;;;;;5051715;28;20154;-62
2022/12/30 14:46:40;;;;;;;5.40;1.77;;;;;;;;;;5066905;28;20076;-63
2022/12/30 14:49:23;;;;;;;8.95;2.00;;;;;;;;;;5039080;28;20055;-62
2022/12/30 14:52:02;;;;;;;5.20;2.00;;;;;;;;;;5067319;28;20103;-63
2022/12/30 14:54:34;;;;;;;10.48;2.08;;;;;;;;;;5054018;28;20048;-63
2022/12/30 14:57:07;;;;;;;4.22;1.95;;;;;;;;;;5046912;28;20048;-61
2022/12/30 14:59:35;;;;;;;12.13;2.78;;;;;;;;;;5050562;28;20048;-64
2022/12/30 15:02:09;;;;;;;3.22;1.60;;;;;;;;;;5070768;28;20059;-62
2022/12/30 15:04:35;;;;;;;4.63;1.88;;;;;;;;;;5055960;28;20055;-63
2022/12/30 15:07:01;;;;;;;4.88;2.00;;;;;;;;;;5055945;28;20455;-62
2022/12/30 15:09:27;;;;;;;6.80;1.70;;;;;;;;;;5072801;28;20048;-61
2022/12/30 15:11:56;;;;;;;5.35;1.98;;;;;;;;;;5074797;28;20151;-62
2022/12/30 15:14:22;;;;;;;4.25;1.73;;;;;;;;;;5075850;28;20494;-64
2022/12/30 15:17:04;;;;;;;5.95;2.17;;;;;;;;;;5051183;28;20084;-65
2022/12/30 15:19:30;;;;;;;5.88;1.52;;;;;;;;;;5058186;28;20040;-63
2022/12/30 15:21:57;;;;;;;4.53;1.73;;;;;;;;;;5078522;28;20040;-64
2022/12/30 15:24:25;;;;;;;9.00;3.72;;;;;;;;;;5068302;28;20048;-60
2022/12/30 15:26:55;;;;;;;6.32;1.90;;;;;;;;;;5068095;28;20058;-62
2022/12/30 15:29:26;;;;;;;5.05;2.00;;;;;;;;;;5069453;28;20167;-64
2022/12/30 15:32:04;;;;;;;7.07;2.45;;;;;;;;;;5050636;28;20088;-63
2022/12/30 15:34:35;;;;;;;5.28;1.60;;;;;;;;;;5064076;28;20163;-63
2022/12/30 15:37:02;;;;;;;4.93;2.10;;;;;;;;;;5076922;28;20036;-65